Time;durP1;ratioP1;P1;durP2;ratioP2;P2;SDS_P1;SDS_P2;PMS_P1;PMS_P2;Temp;Humidity;BMP_temperature;BMP_pressure;BME280_temperature;BME280_humidity;BME280_pressure;Samples;Min_cycle;Max_cycle;Signal;HPM_P1;HPM_P2
2020/12/29 00:01:40;;;;;;;1.35;1.23;;;5.30;99.90;;;;;;5062952;28;20205;-58
2020/12/29 00:04:11;;;;;;;1.30;1.20;;;5.30;99.90;;;;;;5068383;28;20196;-59
2020/12/29 00:06:51;;;;;;;1.38;1.27;;;5.40;99.90;;;;;;5068197;28;20217;-58
2020/12/29 00:09:17;;;;;;;1.17;1.08;;;5.40;99.90;;;;;;5068115;28;20207;-58
2020/12/29 00:11:44;;;;;;;1.30;1.17;;;5.20;99.90;;;;;;5068326;28;20718;-58
2020/12/29 00:14:11;;;;;;;1.95;1.40;;;5.40;99.90;;;;;;5068406;28;20217;-58
2020/12/29 00:16:37;;;;;;;1.10;0.98;;;5.30;99.90;;;;;;5060252;28;20212;-58
2020/12/29 00:19:06;;;;;;;1.00;0.90;;;5.20;99.90;;;;;;5072643;28;20189;-58
2020/12/29 00:21:32;;;;;;;1.10;0.93;;;5.30;99.90;;;;;;5068345;28;20428;-58
2020/12/29 00:23:57;;;;;;;1.27;1.00;;;5.40;99.90;;;;;;5055813;28;20213;-59
2020/12/29 00:26:26;;;;;;;1.60;1.30;;;5.20;99.90;;;;;;5066994;28;20212;-58
2020/12/29 00:28:51;;;;;;;1.17;1.00;;;5.10;99.90;;;;;;5068099;28;20553;-58
2020/12/29 00:31:21;;;;;;;1.10;1.00;;;4.50;99.90;;;;;;5069161;28;20186;-58
2020/12/29 00:33:52;;;;;;;1.55;1.13;;;5.10;99.90;;;;;;5067582;28;20181;-58
2020/12/29 00:36:18;;;;;;;1.20;1.00;;;5.10;99.90;;;;;;5055346;28;20192;-59
2020/12/29 00:38:44;;;;;;;1.23;0.90;;;5.10;99.90;;;;;;5069331;28;20198;-58
2020/12/29 00:41:11;;;;;;;1.52;1.00;;;4.80;99.90;;;;;;5067870;28;20204;-58
2020/12/29 00:43:38;;;;;;;1.15;1.00;;;4.80;99.90;;;;;;5067991;28;20185;-58
2020/12/29 00:46:05;;;;;;;1.05;0.90;;;4.90;99.90;;;;;;5067414;28;20185;-59
2020/12/29 00:48:31;;;;;;;1.35;0.70;;;5.10;99.90;;;;;;5067827;28;20189;-58
2020/12/29 00:51:16;;;;;;;0.70;0.60;;;5.00;99.90;;;;;;5066887;28;20177;-59
2020/12/29 00:53:42;;;;;;;1.50;1.08;;;5.00;99.90;;;;;;5067820;28;20185;-59
2020/12/29 00:56:09;;;;;;;0.90;0.70;;;5.00;99.90;;;;;;5067705;28;20199;-58
2020/12/29 00:58:36;;;;;;;0.80;0.80;;;5.10;99.90;;;;;;5063056;28;20285;-58
2020/12/29 01:01:07;;;;;;;0.80;0.70;;;5.10;99.90;;;;;;5059455;28;20189;-58
2020/12/29 01:03:32;;;;;;;0.90;0.70;;;5.30;99.90;;;;;;5067674;28;20207;-58
2020/12/29 01:05:58;;;;;;;0.67;0.67;;;5.40;99.90;;;;;;5064720;28;20181;-58
2020/12/29 01:08:24;;;;;;;0.80;0.70;;;5.40;99.90;;;;;;5066771;28;20218;-58
2020/12/29 01:10:57;;;;;;;0.70;0.67;;;5.40;99.90;;;;;;5067638;28;20565;-58
2020/12/29 01:13:22;;;;;;;0.70;0.60;;;5.20;99.90;;;;;;5067938;28;20424;-58
2020/12/29 01:15:49;;;;;;;1.10;0.80;;;5.20;99.90;;;;;;5067488;28;20239;-58
2020/12/29 01:18:15;;;;;;;0.70;0.70;;;5.40;99.90;;;;;;5067537;28;20206;-59
2020/12/29 01:20:40;;;;;;;0.70;0.60;;;5.40;99.90;;;;;;5067259;28;20181;-58
2020/12/29 01:23:06;;;;;;;1.33;0.80;;;5.30;99.90;;;;;;5053943;28;20189;-59
2020/12/29 01:25:32;;;;;;;0.77;0.70;;;5.40;99.90;;;;;;5067679;28;20197;-59
2020/12/29 01:27:58;;;;;;;0.70;0.63;;;5.20;99.90;;;;;;5067523;28;20295;-58
2020/12/29 01:30:24;;;;;;;0.90;0.60;;;5.40;99.90;;;;;;5061094;28;20428;-59
2020/12/29 01:32:49;;;;;;;0.80;0.80;;;5.40;99.90;;;;;;5073733;28;20182;-59
2020/12/29 01:35:15;;;;;;;1.93;0.80;;;5.40;99.90;;;;;;5064754;28;20430;-58
2020/12/29 01:37:45;;;;;;;1.00;0.77;;;5.20;99.90;;;;;;5071174;28;20225;-59
2020/12/29 01:40:12;;;;;;;0.70;0.60;;;5.30;99.90;;;;;;5069942;28;20464;-59
2020/12/29 01:42:39;;;;;;;0.80;0.70;;;5.20;99.90;;;;;;5070965;28;20194;-58
2020/12/29 01:45:16;;;;;;;0.60;0.60;;;5.40;99.90;;;;;;5073803;28;20179;-59
2020/12/29 01:47:42;;;;;;;0.90;0.80;;;5.40;99.90;;;;;;5072745;28;20583;-58
2020/12/29 01:50:12;;;;;;;0.70;0.70;;;5.50;99.90;;;;;;5066488;28;20284;-58
2020/12/29 01:52:38;;;;;;;0.80;0.70;;;5.30;99.90;;;;;;5070796;28;20267;-58
2020/12/29 01:55:06;;;;;;;0.70;0.70;;;5.50;99.90;;;;;;5070942;28;20215;-58
2020/12/29 01:57:33;;;;;;;0.70;0.70;;;5.50;99.90;;;;;;5069935;28;20209;-58
2020/12/29 01:59:59;;;;;;;0.80;0.80;;;5.50;99.90;;;;;;5070496;28;20181;-58
2020/12/29 02:02:25;;;;;;;0.70;0.70;;;5.40;99.90;;;;;;5060908;28;20219;-58
2020/12/29 02:04:51;;;;;;;0.75;0.73;;;5.60;99.90;;;;;;5071051;28;20267;-58
2020/12/29 02:07:17;;;;;;;0.80;0.80;;;5.50;99.90;;;;;;5070412;28;20625;-58
2020/12/29 02:09:43;;;;;;;0.70;0.65;;;5.60;99.90;;;;;;5080842;28;20194;-58
2020/12/29 02:12:30;;;;;;;0.80;0.70;;;5.40;99.90;;;;;;5070524;28;20217;-59
2020/12/29 02:14:56;;;;;;;1.77;0.82;;;5.50;99.90;;;;;;5066115;28;20212;-58
2020/12/29 02:17:26;;;;;;;1.30;0.90;;;5.50;99.90;;;;;;5070548;28;20205;-58
2020/12/29 02:19:52;;;;;;;0.85;0.70;;;5.50;99.90;;;;;;5070276;28;20213;-58
2020/12/29 02:22:23;;;;;;;0.98;0.50;;;5.80;99.90;;;;;;5070712;28;20216;-58
2020/12/29 02:24:54;;;;;;;0.80;0.65;;;5.60;99.90;;;;;;5070682;28;20706;-59
2020/12/29 02:27:21;;;;;;;1.00;0.80;;;5.50;99.90;;;;;;5070350;28;20568;-59
2020/12/29 02:29:47;;;;;;;0.90;0.55;;;5.70;99.90;;;;;;5070612;28;20213;-58
2020/12/29 02:32:14;;;;;;;1.50;0.70;;;5.60;99.90;;;;;;5069542;28;20424;-59
2020/12/29 02:34:40;;;;;;;1.83;0.90;;;5.70;99.90;;;;;;5070678;28;20439;-58
2020/12/29 02:37:07;;;;;;;0.73;0.50;;;5.80;99.90;;;;;;5070165;28;20209;-58
2020/12/29 02:39:35;;;;;;;1.23;0.60;;;5.90;99.90;;;;;;5070583;28;20244;-58
2020/12/29 02:42:00;;;;;;;0.60;0.60;;;5.60;99.90;;;;;;5070529;28;20185;-59
2020/12/29 02:44:26;;;;;;;0.70;0.60;;;6.00;99.90;;;;;;5064170;28;20199;-59
2020/12/29 02:46:52;;;;;;;0.60;0.60;;;6.10;99.90;;;;;;5049736;28;21001;-59
2020/12/29 02:49:20;;;;;;;0.60;0.57;;;6.00;99.90;;;;;;5063286;28;20190;-59
2020/12/29 02:51:46;;;;;;;0.68;0.68;;;6.20;99.90;;;;;;5069974;28;20433;-60
2020/12/29 02:54:15;;;;;;;0.80;0.63;;;6.20;99.90;;;;;;5061394;28;20189;-58
2020/12/29 02:56:42;;;;;;;0.60;0.50;;;6.10;99.90;;;;;;5065411;28;20211;-59
2020/12/29 02:59:08;;;;;;;0.60;0.60;;;6.20;99.90;;;;;;5066161;28;20195;-58
2020/12/29 03:01:34;;;;;;;0.63;0.50;;;6.20;99.90;;;;;;5065744;28;20705;-58
2020/12/29 03:04:00;;;;;;;0.60;0.50;;;5.70;99.90;;;;;;5069698;28;20189;-58
2020/12/29 03:06:26;;;;;;;1.20;0.70;;;5.80;99.90;;;;;;5068742;28;20853;-58
2020/12/29 03:08:51;;;;;;;1.30;0.63;;;5.70;99.90;;;;;;5069436;28;20183;-58
2020/12/29 03:11:27;;;;;;;0.67;0.50;;;5.90;99.90;;;;;;5069590;28;20404;-59
2020/12/29 03:13:55;;;;;;;0.50;0.40;;;5.90;99.90;;;;;;5069183;28;20180;-58
2020/12/29 03:16:20;;;;;;;0.63;0.50;;;5.60;99.90;;;;;;5070616;28;20530;-58
2020/12/29 03:18:46;;;;;;;0.70;0.50;;;5.80;99.90;;;;;;5069094;28;20196;-58
2020/12/29 03:21:12;;;;;;;0.60;0.60;;;5.70;99.90;;;;;;5055710;28;20213;-59
2020/12/29 03:23:38;;;;;;;0.60;0.50;;;5.80;99.90;;;;;;5068622;28;20799;-59
2020/12/29 03:26:03;;;;;;;0.60;0.50;;;5.50;99.90;;;;;;5079122;28;20266;-59
2020/12/29 03:28:29;;;;;;;0.60;0.50;;;5.80;99.90;;;;;;5059837;28;20737;-59
2020/12/29 03:30:55;;;;;;;0.50;0.50;;;5.90;99.90;;;;;;5066335;28;20208;-58
2020/12/29 03:33:20;;;;;;;0.60;0.50;;;5.80;99.90;;;;;;5059411;28;20659;-58
2020/12/29 03:35:46;;;;;;;0.83;0.50;;;5.50;99.90;;;;;;5069220;28;20520;-59
2020/12/29 03:38:12;;;;;;;1.00;0.57;;;5.80;99.90;;;;;;5068565;28;20576;-59
2020/12/29 03:40:37;;;;;;;0.60;0.50;;;5.50;99.90;;;;;;5068222;28;20712;-59
2020/12/29 03:43:03;;;;;;;0.60;0.50;;;5.60;99.90;;;;;;5068770;28;20188;-59
2020/12/29 03:45:29;;;;;;;0.70;0.50;;;5.40;99.90;;;;;;5068650;28;20188;-58
2020/12/29 03:47:54;;;;;;;0.60;0.47;;;5.40;99.90;;;;;;5068554;28;20670;-58
2020/12/29 03:50:20;;;;;;;0.63;0.50;;;5.20;99.90;;;;;;5068488;28;20178;-58
2020/12/29 03:52:46;;;;;;;1.10;0.57;;;5.50;99.90;;;;;;5068384;28;20581;-58
2020/12/29 03:55:12;;;;;;;0.60;0.50;;;5.40;99.90;;;;;;5068462;28;20268;-59
2020/12/29 03:57:38;;;;;;;0.70;0.60;;;5.30;99.90;;;;;;5066730;28;20209;-58
2020/12/29 04:00:06;;;;;;;0.90;0.60;;;5.10;99.90;;;;;;5065507;28;20472;-58
2020/12/29 04:02:32;;;;;;;0.60;0.50;;;5.00;99.90;;;;;;5058969;28;20198;-58
2020/12/29 04:04:57;;;;;;;0.88;0.60;;;5.40;99.90;;;;;;5068193;28;20182;-58
2020/12/29 04:07:23;;;;;;;1.00;0.67;;;5.20;99.90;;;;;;5068077;28;20236;-59
2020/12/29 04:09:49;;;;;;;1.13;0.50;;;5.30;99.90;;;;;;5052022;28;20269;-59
2020/12/29 04:12:14;;;;;;;0.60;0.60;;;5.50;99.90;;;;;;5059630;28;20193;-59
2020/12/29 04:14:40;;;;;;;0.73;0.50;;;5.40;99.90;;;;;;5054492;28;20186;-58
2020/12/29 04:17:05;;;;;;;0.70;0.60;;;5.40;99.90;;;;;;5068074;28;20215;-59
2020/12/29 04:19:31;;;;;;;0.80;0.50;;;5.40;99.90;;;;;;5067678;28;20191;-59
2020/12/29 04:21:57;;;;;;;0.90;0.60;;;5.60;99.90;;;;;;5068342;28;20284;-57
2020/12/29 04:24:25;;;;;;;0.80;0.60;;;5.60;99.90;;;;;;5068126;28;20185;-59
2020/12/29 04:26:51;;;;;;;0.60;0.50;;;5.50;99.90;;;;;;5068019;28;20213;-59
2020/12/29 04:29:16;;;;;;;0.60;0.50;;;5.50;99.90;;;;;;5067840;28;20193;-59
2020/12/29 04:31:42;;;;;;;0.70;0.50;;;5.40;99.90;;;;;;5058708;28;20231;-59
2020/12/29 04:34:08;;;;;;;0.60;0.40;;;5.40;99.90;;;;;;5065035;28;20185;-59
2020/12/29 04:36:34;;;;;;;0.60;0.50;;;5.50;99.90;;;;;;5069330;28;20444;-58
2020/12/29 04:38:59;;;;;;;0.63;0.53;;;5.20;99.90;;;;;;5067812;28;20458;-58
2020/12/29 04:41:25;;;;;;;0.70;0.60;;;5.30;99.90;;;;;;5067955;28;20186;-58
2020/12/29 04:43:55;;;;;;;0.60;0.50;;;5.40;99.90;;;;;;5079664;28;20180;-59
2020/12/29 04:46:21;;;;;;;1.63;0.60;;;5.40;99.90;;;;;;5049401;28;20240;-59
2020/12/29 04:48:46;;;;;;;0.60;0.50;;;5.40;99.90;;;;;;5065199;28;20180;-58
2020/12/29 04:51:18;;;;;;;0.60;0.60;;;4.90;99.90;;;;;;5068172;28;20177;-61
2020/12/29 04:53:57;;;;;;;0.85;0.60;;;5.40;99.90;;;;;;5067615;28;20194;-60
2020/12/29 04:56:32;;;;;;;0.60;0.50;;;5.50;99.90;;;;;;5067862;28;20211;-59
2020/12/29 04:59:04;;;;;;;3.25;0.68;;;5.60;99.90;;;;;;5067728;28;20188;-59
2020/12/29 05:01:37;;;;;;;1.80;0.65;;;5.40;99.90;;;;;;5068184;28;20186;-60
2020/12/29 05:04:03;;;;;;;0.90;0.50;;;5.50;99.90;;;;;;5057134;28;20196;-59
2020/12/29 05:06:28;;;;;;;0.80;0.50;;;5.30;99.90;;;;;;5067690;28;20211;-57
2020/12/29 05:08:54;;;;;;;0.70;0.53;;;5.50;99.90;;;;;;5069215;28;20214;-59
2020/12/29 05:11:23;;;;;;;0.70;0.52;;;5.30;99.90;;;;;;5069840;28;20185;-57
2020/12/29 05:13:49;;;;;;;0.60;0.50;;;5.40;99.90;;;;;;5051735;28;20636;-60
2020/12/29 05:16:16;;;;;;;1.02;0.60;;;5.30;99.90;;;;;;5051705;28;20737;-59
2020/12/29 05:18:43;;;;;;;1.10;0.47;;;5.30;99.90;;;;;;5051296;28;20235;-60
2020/12/29 05:21:09;;;;;;;0.60;0.52;;;5.30;99.90;;;;;;5055492;28;20231;-60
2020/12/29 05:23:35;;;;;;;1.33;0.63;;;5.30;99.90;;;;;;5071511;28;20646;-59
2020/12/29 05:26:04;;;;;;;1.60;0.80;;;5.20;99.90;;;;;;5058249;28;20185;-59
2020/12/29 05:28:31;;;;;;;2.88;0.60;;;5.20;99.90;;;;;;5071894;28;20205;-60
2020/12/29 05:30:58;;;;;;;0.95;0.60;;;5.40;99.90;;;;;;5070053;28;20194;-59
2020/12/29 05:33:24;;;;;;;2.05;0.68;;;5.30;99.90;;;;;;5071175;28;20190;-59
2020/12/29 05:35:52;;;;;;;0.88;0.70;;;5.30;99.90;;;;;;5057939;28;20182;-59
2020/12/29 05:38:18;;;;;;;1.00;0.60;;;5.20;99.90;;;;;;5070341;28;20204;-60
2020/12/29 05:40:49;;;;;;;1.08;0.63;;;5.20;99.90;;;;;;5071134;28;20890;-59
2020/12/29 05:43:25;;;;;;;0.60;0.50;;;5.20;99.90;;;;;;5071228;28;20243;-59
2020/12/29 05:45:51;;;;;;;0.75;0.50;;;5.30;99.90;;;;;;5071181;28;20255;-57
2020/12/29 05:48:17;;;;;;;1.10;0.70;;;5.30;99.90;;;;;;5070532;28;20235;-59
2020/12/29 05:50:43;;;;;;;0.60;0.40;;;5.40;99.90;;;;;;5070790;28;20185;-59
2020/12/29 05:53:11;;;;;;;0.60;0.40;;;5.20;99.90;;;;;;5070777;28;20427;-59
2020/12/29 05:55:37;;;;;;;1.48;0.50;;;5.20;99.90;;;;;;5069923;28;20182;-59
2020/12/29 05:58:10;;;;;;;0.60;0.50;;;5.30;99.90;;;;;;5070652;28;20213;-59
2020/12/29 06:00:40;;;;;;;0.70;0.50;;;5.40;99.90;;;;;;5070434;28;20999;-60
2020/12/29 06:03:08;;;;;;;1.70;0.60;;;5.30;99.90;;;;;;5059729;28;20195;-60
2020/12/29 06:05:35;;;;;;;4.65;1.80;;;5.30;99.90;;;;;;5070791;28;20220;-60
2020/12/29 06:08:09;;;;;;;1.00;0.60;;;5.20;99.90;;;;;;5070358;28;20217;-59
2020/12/29 06:10:36;;;;;;;1.35;0.82;;;5.10;99.90;;;;;;5070656;28;20323;-60
2020/12/29 06:13:06;;;;;;;1.45;0.70;;;5.10;99.90;;;;;;5069540;28;20192;-60
2020/12/29 06:15:32;;;;;;;1.13;0.60;;;5.20;99.90;;;;;;5070252;28;20239;-60
2020/12/29 06:18:06;;;;;;;0.82;0.70;;;5.10;99.90;;;;;;5070249;28;20708;-60
2020/12/29 06:20:36;;;;;;;0.80;0.50;;;5.00;99.90;;;;;;5070087;28;20657;-60
2020/12/29 06:23:04;;;;;;;0.60;0.50;;;5.10;99.90;;;;;;5070500;28;20303;-60
2020/12/29 06:25:36;;;;;;;1.02;0.70;;;5.20;99.90;;;;;;5070074;28;20605;-60
2020/12/29 06:28:04;;;;;;;0.80;0.60;;;5.30;99.90;;;;;;5065418;28;20569;-60
2020/12/29 06:30:31;;;;;;;0.70;0.60;;;5.10;99.90;;;;;;5065272;28;20205;-60
2020/12/29 06:32:58;;;;;;;0.60;0.50;;;5.10;99.90;;;;;;5065828;28;20189;-58
2020/12/29 06:35:24;;;;;;;1.60;0.73;;;5.20;99.90;;;;;;5080895;28;20268;-58
2020/12/29 06:38:17;;;;;;;0.97;0.70;;;4.90;99.90;;;;;;5071183;28;20292;-57
2020/12/29 06:40:44;;;;;;;0.63;0.63;;;5.10;99.90;;;;;;5069951;28;20457;-58
2020/12/29 06:43:10;;;;;;;0.70;0.60;;;5.20;99.90;;;;;;5069939;28;20187;-58
2020/12/29 06:45:37;;;;;;;1.20;0.75;;;4.50;99.90;;;;;;5069674;28;20190;-58
2020/12/29 06:48:20;;;;;;;0.70;0.50;;;5.10;99.90;;;;;;5068847;28;20591;-59
2020/12/29 06:50:49;;;;;;;0.80;0.70;;;5.20;99.90;;;;;;5069521;28;20173;-58
2020/12/29 06:53:17;;;;;;;0.75;0.60;;;5.00;99.90;;;;;;5070563;28;20196;-58
2020/12/29 06:55:50;;;;;;;1.38;0.70;;;5.20;99.90;;;;;;5069688;28;20181;-58
2020/12/29 06:58:32;;;;;;;1.08;0.98;;;5.20;99.90;;;;;;5069319;28;20218;-58
2020/12/29 07:01:24;;;;;;;0.70;0.50;;;5.30;99.90;;;;;;5069513;28;20226;-59
2020/12/29 07:04:05;;;;;;;1.58;0.60;;;5.10;99.90;;;;;;5067598;28;20184;-58
2020/12/29 07:06:33;;;;;;;1.95;0.60;;;5.20;99.90;;;;;;5068999;28;20609;-58
2020/12/29 07:09:07;;;;;;;1.50;0.63;;;5.00;99.90;;;;;;5069129;28;20677;-58
2020/12/29 07:11:34;;;;;;;1.17;0.60;;;4.50;99.90;;;;;;5074166;28;20189;-59
2020/12/29 07:14:05;;;;;;;1.55;0.70;;;5.20;99.90;;;;;;5066766;28;20271;-58
2020/12/29 07:16:34;;;;;;;1.23;0.70;;;5.20;99.90;;;;;;5068094;28;20206;-58
2020/12/29 07:19:12;;;;;;;0.60;0.50;;;5.40;99.90;;;;;;5069238;28;20186;-58
2020/12/29 07:21:37;;;;;;;0.77;0.50;;;5.50;99.90;;;;;;5068308;28;20265;-59
2020/12/29 07:24:05;;;;;;;4.13;0.93;;;5.30;99.90;;;;;;5068763;28;20478;-58
2020/12/29 07:26:39;;;;;;;0.98;0.85;;;5.50;99.90;;;;;;5056494;28;20684;-58
2020/12/29 07:29:07;;;;;;;1.00;0.70;;;5.40;99.90;;;;;;5069208;28;20231;-58
2020/12/29 07:31:40;;;;;;;2.83;0.80;;;5.50;99.90;;;;;;5061333;28;20189;-58
2020/12/29 07:34:11;;;;;;;1.05;0.70;;;5.30;99.90;;;;;;5050864;28;20594;-58
2020/12/29 07:36:47;;;;;;;1.40;0.70;;;5.40;99.90;;;;;;5077821;28;20231;-58
2020/12/29 07:39:14;;;;;;;1.75;0.98;;;5.50;99.90;;;;;;5067434;28;20605;-59
2020/12/29 07:41:41;;;;;;;1.60;0.80;;;5.50;99.90;;;;;;5068779;28;20186;-58
2020/12/29 07:44:07;;;;;;;1.95;0.80;;;5.50;99.90;;;;;;5068717;28;20658;-58
2020/12/29 07:46:33;;;;;;;1.63;0.80;;;5.50;99.90;;;;;;5068091;28;20278;-57
2020/12/29 07:48:59;;;;;;;2.60;1.40;;;5.50;99.90;;;;;;5068466;28;20447;-58
2020/12/29 07:51:25;;;;;;;1.55;1.10;;;5.50;99.90;;;;;;5068293;28;20651;-58
2020/12/29 07:53:51;;;;;;;1.10;0.70;;;5.40;99.90;;;;;;5070316;28;20735;-58
2020/12/29 07:56:18;;;;;;;1.13;1.00;;;5.50;99.90;;;;;;5061023;28;20191;-59
2020/12/29 07:58:43;;;;;;;1.73;0.80;;;5.70;99.90;;;;;;5068080;28;20465;-58
2020/12/29 08:01:09;;;;;;;0.90;0.80;;;5.50;99.90;;;;;;5068832;28;20221;-57
2020/12/29 08:03:34;;;;;;;0.70;0.50;;;5.50;99.90;;;;;;5068093;28;20200;-58
2020/12/29 08:06:00;;;;;;;1.20;0.97;;;5.80;99.90;;;;;;5068417;28;20191;-58
2020/12/29 08:08:26;;;;;;;1.37;0.83;;;5.70;99.90;;;;;;5054743;28;20656;-58
2020/12/29 08:10:51;;;;;;;2.00;0.90;;;5.50;99.90;;;;;;5068936;28;20221;-58
2020/12/29 08:13:20;;;;;;;1.00;0.80;;;5.80;99.90;;;;;;5068012;28;20271;-57
2020/12/29 08:15:48;;;;;;;0.88;0.88;;;5.90;99.90;;;;;;5058217;28;20645;-58
2020/12/29 08:18:16;;;;;;;1.80;0.90;;;5.30;99.90;;;;;;5066053;28;20212;-58
2020/12/29 08:20:54;;;;;;;1.55;0.65;;;5.80;99.90;;;;;;5068290;28;20680;-57
2020/12/29 08:23:21;;;;;;;2.35;1.08;;;5.80;99.90;;;;;;5068239;28;20623;-57
2020/12/29 08:25:58;;;;;;;1.42;1.00;;;6.00;99.90;;;;;;5081118;28;20181;-58
2020/12/29 08:28:26;;;;;;;1.92;1.15;;;6.10;99.90;;;;;;5057225;28;20205;-58
2020/12/29 08:30:54;;;;;;;0.82;0.70;;;6.10;99.90;;;;;;5067984;28;20238;-58
2020/12/29 08:33:21;;;;;;;1.90;1.30;;;5.90;99.90;;;;;;5066118;28;20190;-59
2020/12/29 08:35:50;;;;;;;5.88;4.20;;;6.10;99.90;;;;;;5064351;28;20186;-59
2020/12/29 08:38:31;;;;;;;2.75;1.08;;;5.60;99.90;;;;;;5067500;28;20669;-58
2020/12/29 08:41:09;;;;;;;4.75;1.05;;;6.00;99.90;;;;;;5052138;28;20190;-59
2020/12/29 08:43:50;;;;;;;1.08;0.68;;;6.00;99.90;;;;;;5047764;28;20187;-59
2020/12/29 08:46:24;;;;;;;0.85;0.70;;;6.20;99.90;;;;;;5060977;28;20189;-59
2020/12/29 08:48:53;;;;;;;1.25;0.73;;;6.30;99.90;;;;;;5069009;28;20609;-58
2020/12/29 08:51:21;;;;;;;1.45;0.82;;;6.10;99.90;;;;;;5068030;28;20184;-58
2020/12/29 08:53:47;;;;;;;1.30;0.98;;;5.90;99.90;;;;;;5067649;28;20186;-59
2020/12/29 08:56:26;;;;;;;2.03;1.20;;;5.80;99.90;;;;;;5068071;28;20194;-58
2020/12/29 08:58:55;;;;;;;1.25;0.85;;;5.80;99.90;;;;;;5067495;28;20440;-59
2020/12/29 09:01:38;;;;;;;1.60;1.20;;;5.60;99.90;;;;;;5067530;28;20182;-59
2020/12/29 09:04:25;;;;;;;0.80;0.80;;;5.90;99.90;;;;;;5064227;28;20181;-58
2020/12/29 09:07:15;;;;;;;2.85;1.00;;;5.80;99.90;;;;;;5067497;28;20210;-58
2020/12/29 09:09:52;;;;;;;1.83;0.80;;;5.60;99.90;;;;;;5065033;28;20205;-58
2020/12/29 09:12:27;;;;;;;2.83;1.20;;;5.80;99.90;;;;;;5067178;28;20208;-58
2020/12/29 09:15:00;;;;;;;1.27;0.65;;;5.90;99.90;;;;;;5067737;28;20194;-58
2020/12/29 09:17:31;;;;;;;0.80;0.70;;;5.70;99.90;;;;;;5067542;28;20234;-59
2020/12/29 09:20:21;;;;;;;3.95;1.10;;;5.90;99.90;;;;;;5060537;28;20276;-58
2020/12/29 09:22:48;;;;;;;0.70;0.70;;;5.70;99.90;;;;;;5047370;28;20206;-59
2020/12/29 09:25:38;;;;;;;2.45;0.85;;;5.80;99.90;;;;;;5057248;28;20262;-58
2020/12/29 09:28:07;;;;;;;0.80;0.80;;;5.70;99.90;;;;;;5067213;28;20234;-59
2020/12/29 09:30:32;;;;;;;0.98;0.77;;;5.80;99.90;;;;;;5067759;28;20604;-58
2020/12/29 09:32:58;;;;;;;1.03;0.97;;;5.80;99.90;;;;;;5066935;28;20246;-58
2020/12/29 09:35:27;;;;;;;0.90;0.73;;;5.70;99.90;;;;;;5067463;28;20284;-58
2020/12/29 09:37:58;;;;;;;1.00;0.85;;;5.80;99.90;;;;;;5063716;28;20201;-59
2020/12/29 09:40:24;;;;;;;0.80;0.75;;;5.80;99.90;;;;;;5073520;28;20243;-59
2020/12/29 09:42:50;;;;;;;1.20;1.10;;;5.80;99.90;;;;;;5067767;28;20222;-59
2020/12/29 09:45:21;;;;;;;2.75;2.55;;;5.70;99.90;;;;;;5067525;28;20198;-58
2020/12/29 09:47:48;;;;;;;1.50;1.20;;;5.70;99.90;;;;;;5066925;28;20730;-59
2020/12/29 09:50:14;;;;;;;1.08;0.98;;;5.50;99.90;;;;;;5067432;28;20183;-58
2020/12/29 09:52:40;;;;;;;0.82;0.82;;;5.70;99.90;;;;;;5075743;28;20276;-58
2020/12/29 09:55:06;;;;;;;1.57;0.80;;;5.90;99.90;;;;;;5065152;28;20194;-59
2020/12/29 09:57:32;;;;;;;1.55;1.10;;;6.00;99.90;;;;;;5070758;28;20252;-58
2020/12/29 09:59:57;;;;;;;0.97;0.77;;;6.00;99.90;;;;;;5070570;28;20222;-58
2020/12/29 10:02:23;;;;;;;1.47;0.80;;;6.20;99.90;;;;;;5070297;28;20528;-58
2020/12/29 10:04:49;;;;;;;0.85;0.82;;;6.20;99.90;;;;;;5060038;28;20193;-59
2020/12/29 10:07:15;;;;;;;1.67;0.97;;;6.20;99.90;;;;;;5070133;28;20733;-58
2020/12/29 10:09:41;;;;;;;1.07;1.00;;;6.20;99.90;;;;;;5069597;28;20532;-58
2020/12/29 10:12:06;;;;;;;0.90;0.90;;;6.20;99.90;;;;;;5070429;28;20438;-58
2020/12/29 10:14:32;;;;;;;1.30;0.90;;;6.00;99.90;;;;;;5070266;28;20190;-58
2020/12/29 10:16:58;;;;;;;1.10;0.83;;;5.90;99.90;;;;;;5070173;28;20434;-58
2020/12/29 10:19:23;;;;;;;2.80;1.00;;;6.10;99.90;;;;;;5070054;28;20214;-57
2020/12/29 10:21:53;;;;;;;0.70;0.70;;;6.00;99.90;;;;;;5070351;28;20185;-57
2020/12/29 10:24:19;;;;;;;1.48;0.65;;;6.00;99.90;;;;;;5069859;28;20195;-58
2020/12/29 10:26:48;;;;;;;1.13;1.03;;;6.30;99.90;;;;;;5070475;28;20694;-58
2020/12/29 10:29:13;;;;;;;2.08;1.15;;;6.10;99.90;;;;;;5069193;28;20425;-58
2020/12/29 10:31:39;;;;;;;1.20;1.10;;;6.30;99.90;;;;;;5070328;28;20246;-58
2020/12/29 10:34:04;;;;;;;1.57;0.97;;;6.50;99.90;;;;;;5070092;28;20285;-58
2020/12/29 10:36:37;;;;;;;1.57;1.13;;;6.50;99.90;;;;;;5069803;28;20607;-59
2020/12/29 10:39:04;;;;;;;2.08;0.93;;;6.20;99.90;;;;;;5069552;28;20183;-59
2020/12/29 10:41:32;;;;;;;0.90;0.73;;;6.40;99.90;;;;;;5069923;28;20486;-58
2020/12/29 10:43:57;;;;;;;1.08;0.80;;;6.30;99.90;;;;;;5066143;28;20185;-58
2020/12/29 10:46:24;;;;;;;1.10;1.00;;;6.50;99.90;;;;;;5060221;28;20613;-58
2020/12/29 10:48:50;;;;;;;3.63;1.45;;;6.80;99.90;;;;;;5078876;28;20494;-58
2020/12/29 10:51:23;;;;;;;4.28;2.25;;;6.60;99.90;;;;;;5061219;28;20569;-58
2020/12/29 10:53:51;;;;;;;5.30;3.35;;;6.70;99.90;;;;;;5069380;28;20187;-58
2020/12/29 10:56:17;;;;;;;1.85;1.17;;;7.00;99.90;;;;;;5069576;28;20224;-58
2020/12/29 10:58:42;;;;;;;2.55;1.30;;;6.90;99.90;;;;;;5055696;28;20185;-59
2020/12/29 11:01:09;;;;;;;1.63;0.90;;;7.10;99.90;;;;;;5068630;28;20185;-59
2020/12/29 11:03:35;;;;;;;1.20;1.10;;;7.00;99.90;;;;;;5069064;28;20325;-58
2020/12/29 11:06:00;;;;;;;1.23;0.80;;;7.30;99.90;;;;;;5061223;28;20181;-58
2020/12/29 11:08:27;;;;;;;2.40;1.00;;;7.30;99.90;;;;;;5067814;28;20587;-58
2020/12/29 11:10:53;;;;;;;1.85;1.75;;;7.10;99.90;;;;;;5081869;28;20216;-58
2020/12/29 11:13:19;;;;;;;0.70;0.70;;;7.40;99.90;;;;;;5049697;28;20186;-58
2020/12/29 11:15:47;;;;;;;1.30;0.90;;;7.30;99.90;;;;;;5061606;28;20181;-58
2020/12/29 11:18:13;;;;;;;1.20;1.10;;;7.40;99.90;;;;;;5067727;28;20899;-58
2020/12/29 11:20:39;;;;;;;1.10;1.00;;;7.00;99.90;;;;;;5069336;28;20373;-59
2020/12/29 11:23:05;;;;;;;0.90;0.80;;;7.50;99.90;;;;;;5070217;28;20188;-59
2020/12/29 11:25:30;;;;;;;1.10;0.70;;;7.40;99.90;;;;;;5069887;28;20439;-59
2020/12/29 11:27:56;;;;;;;1.10;1.00;;;7.50;99.90;;;;;;5068388;28;20243;-58
2020/12/29 11:30:22;;;;;;;1.30;1.20;;;7.60;99.90;;;;;;5059380;28;20188;-59
2020/12/29 11:32:47;;;;;;;3.27;1.30;;;7.80;99.90;;;;;;5068164;28;20187;-59
2020/12/29 11:35:13;;;;;;;1.80;1.30;;;8.20;99.90;;;;;;5063413;28;20189;-59
2020/12/29 11:37:38;;;;;;;1.00;0.80;;;8.40;99.90;;;;;;5067042;28;20204;-60
2020/12/29 11:40:04;;;;;;;0.93;0.80;;;8.50;99.90;;;;;;5079469;28;20188;-59
2020/12/29 11:42:30;;;;;;;0.80;0.80;;;9.10;99.90;;;;;;5052755;28;20186;-59
2020/12/29 11:44:55;;;;;;;1.17;0.77;;;9.20;98.20;;;;;;5059685;28;20406;-59
2020/12/29 11:47:21;;;;;;;0.80;0.60;;;9.40;97.50;;;;;;5067831;28;20213;-59
2020/12/29 11:49:46;;;;;;;0.60;0.60;;;9.40;97.10;;;;;;5068109;28;20238;-59
2020/12/29 11:52:12;;;;;;;1.10;0.60;;;9.50;96.10;;;;;;5067095;28;20204;-59
2020/12/29 11:54:38;;;;;;;0.90;0.70;;;9.20;95.60;;;;;;5067889;28;20272;-59
2020/12/29 11:57:03;;;;;;;0.97;0.70;;;9.10;96.40;;;;;;5068104;28;20713;-59
2020/12/29 11:59:29;;;;;;;1.33;0.77;;;8.90;96.90;;;;;;5067735;28;20191;-59
2020/12/29 12:01:54;;;;;;;1.33;0.90;;;8.50;96.30;;;;;;5068004;28;20420;-59
2020/12/29 12:04:20;;;;;;;1.23;0.60;;;8.50;97.50;;;;;;5080009;28;20237;-59
2020/12/29 12:06:46;;;;;;;1.10;0.70;;;8.20;97.80;;;;;;5068680;28;20741;-59
2020/12/29 12:09:12;;;;;;;1.65;0.60;;;8.00;97.60;;;;;;5062729;28;20185;-59
2020/12/29 12:11:38;;;;;;;1.40;0.97;;;8.10;98.00;;;;;;5066840;28;20196;-59
2020/12/29 12:14:07;;;;;;;1.33;0.77;;;8.00;98.10;;;;;;5067637;28;20177;-59
2020/12/29 12:16:40;;;;;;;2.40;0.80;;;7.90;98.70;;;;;;5068810;28;20613;-59
2020/12/29 12:19:05;;;;;;;0.63;0.60;;;7.70;97.60;;;;;;5067489;28;20672;-59
2020/12/29 12:21:33;;;;;;;1.53;0.70;;;8.00;97.90;;;;;;5067934;28;20189;-60
2020/12/29 12:23:59;;;;;;;1.88;0.80;;;7.90;98.30;;;;;;5068403;28;20435;-59
2020/12/29 12:26:27;;;;;;;0.80;0.68;;;7.80;99.20;;;;;;5079135;28;20623;-59
2020/12/29 12:28:53;;;;;;;1.50;0.90;;;7.60;98.90;;;;;;5067159;28;20215;-58
2020/12/29 12:31:19;;;;;;;1.07;0.80;;;7.80;99.90;;;;;;5067311;28;20241;-59
2020/12/29 12:33:45;;;;;;;1.17;0.80;;;7.40;99.70;;;;;;5067172;28;20526;-60
2020/12/29 12:36:11;;;;;;;0.90;0.90;;;7.90;99.90;;;;;;5067405;28;20267;-59
2020/12/29 12:38:37;;;;;;;2.95;1.33;;;7.60;99.90;;;;;;5068699;28;20979;-60
2020/12/29 12:41:06;;;;;;;0.93;0.80;;;7.40;99.90;;;;;;5067954;28;20272;-59
2020/12/29 12:43:32;;;;;;;0.90;0.70;;;7.50;99.90;;;;;;5066518;28;20212;-60
2020/12/29 12:45:57;;;;;;;1.23;0.80;;;7.40;99.90;;;;;;5067255;28;20223;-60
2020/12/29 12:48:23;;;;;;;1.20;1.10;;;7.40;99.90;;;;;;5068595;28;20211;-59
2020/12/29 12:50:49;;;;;;;1.53;0.93;;;7.50;99.90;;;;;;5060076;28;20292;-59
2020/12/29 12:53:15;;;;;;;0.80;0.80;;;7.50;99.90;;;;;;5061546;28;21028;-60
2020/12/29 12:55:41;;;;;;;0.97;0.87;;;7.40;99.90;;;;;;5067481;28;20256;-59
2020/12/29 12:58:07;;;;;;;1.33;1.10;;;7.40;99.90;;;;;;5067954;28;20205;-59
2020/12/29 13:00:33;;;;;;;2.20;1.73;;;7.40;99.90;;;;;;5057495;28;20189;-59
2020/12/29 13:02:58;;;;;;;0.70;0.67;;;7.50;99.90;;;;;;5067615;28;20199;-60